Archival Weather

Chicago O'Hare International

Chicago, Illinois (KORD)

Report from: Friday, March 30, 2012 4:51 AM CDT
Current time: Friday, April 19, 2024 3:26 AM CDT

Current weather – Weather history – Daily summaries
Weather forecast

Temperature8.9°C (48.0°F)
Wind chill5.5°C (41.8°F)
Dew point3.3°C (37.9°F)
Winds 14 kts (7.2 m/s, 16.1 mph) Southeast (130°)
Visibility10 mi. (16.1 km)
Clouds Scattered clouds 6,500 ft. (1,981 m)
Scattered clouds 9,000 ft. (2,743 m)
Ceiling: Overcast 13,000 ft. (3,962 m)
Altimeter29.78 in.Hg (1008 mB)
Relative humidity68 %
Density altitude-468 ft. (-143 m)
Sea-level pressure100.9 kPa (1009 mB, 29.79 in.Hg)
Remarks System requires maintenance
Automated weather observing station with precipitation discriminator
Flight conditions Visual Meteorological Conditions
Raw data2012-03-30 09:51 KORD 300951Z 13014KT 10SM SCT065 SCT090 OVC130 09/03 A2978 RMK AO2 SLP089 T00890033 $
An error has occurred. This application may no longer respond until reloaded. Reload 🗙